sensor_id;sensor_type;location;lat;lon;timestamp;P1;P2;P0
69224;PMS1003;56333;51.306;17.056;2023-03-14T00:00:25;8.60;5.20;
69224;PMS1003;56333;51.306;17.056;2023-03-14T00:01:58;10.20;5.60;
69224;PMS1003;56333;51.306;17.056;2023-03-14T00:03:23;12.80;5.30;
69224;PMS1003;56333;51.306;17.056;2023-03-14T00:04:47;8.20;4.90;
69224;PMS1003;56333;51.306;17.056;2023-03-14T00:06:13;7.50;5.10;
69224;PMS1003;56333;51.306;17.056;2023-03-14T00:07:39;6.60;4.40;
69224;PMS1003;56333;51.306;17.056;2023-03-14T00:09:03;9.40;5.10;
69224;PMS1003;56333;51.306;17.056;2023-03-14T00:10:28;8.40;4.70;
69224;PMS1003;56333;51.306;17.056;2023-03-14T00:11:53;7.80;4.60;
69224;PMS1003;56333;51.306;17.056;2023-03-14T00:13:18;7.50;4.50;
69224;PMS1003;56333;51.306;17.056;2023-03-14T00:14:43;6.90;4.30;
69224;PMS1003;56333;51.306;17.056;2023-03-14T00:16:11;7.80;4.40;
69224;PMS1003;56333;51.306;17.056;2023-03-14T00:17:36;7.70;4.30;
69224;PMS1003;56333;51.306;17.056;2023-03-14T00:19:02;8.40;4.70;
69224;PMS1003;56333;51.306;17.056;2023-03-14T00:20:26;8.80;4.30;
69224;PMS1003;56333;51.306;17.056;2023-03-14T00:21:51;9.10;4.80;
69224;PMS1003;56333;51.306;17.056;2023-03-14T00:23:16;8.80;4.80;
69224;PMS1003;56333;51.306;17.056;2023-03-14T00:24:40;8.40;4.70;
69224;PMS1003;56333;51.306;17.056;2023-03-14T00:26:09;6.20;3.90;
69224;PMS1003;56333;51.306;17.056;2023-03-14T00:27:35;10.20;5.00;
69224;PMS1003;56333;51.306;17.056;2023-03-14T00:28:59;7.90;4.50;
69224;PMS1003;56333;51.306;17.056;2023-03-14T00:30:24;7.60;4.60;
69224;PMS1003;56333;51.306;17.056;2023-03-14T00:31:48;7.90;4.90;
69224;PMS1003;56333;51.306;17.056;2023-03-14T00:33:13;6.90;4.50;
69224;PMS1003;56333;51.306;17.056;2023-03-14T00:34:38;7.80;4.80;
69224;PMS1003;56333;51.306;17.056;2023-03-14T00:36:05;8.30;4.80;
69224;PMS1003;56333;51.306;17.056;2023-03-14T00:37:33;8.50;4.70;
69224;PMS1003;56333;51.306;17.056;2023-03-14T00:38:57;9.00;5.00;
69224;PMS1003;56333;51.306;17.056;2023-03-14T00:40:22;8.10;4.70;
69224;PMS1003;56333;51.306;17.056;2023-03-14T00:41:46;7.90;5.20;
69224;PMS1003;56333;51.306;17.056;2023-03-14T00:43:16;8.60;4.90;
69224;PMS1003;56333;51.306;17.056;2023-03-14T00:44:40;8.70;4.60;
69224;PMS1003;56333;51.306;17.056;2023-03-14T00:46:06;8.00;5.00;
69224;PMS1003;56333;51.306;17.056;2023-03-14T00:47:31;8.10;4.20;
69224;PMS1003;56333;51.306;17.056;2023-03-14T00:48:56;8.60;4.40;
69224;PMS1003;56333;51.306;17.056;2023-03-14T00:50:20;8.40;4.30;
69224;PMS1003;56333;51.306;17.056;2023-03-14T00:51:45;9.60;4.70;
69224;PMS1003;56333;51.306;17.056;2023-03-14T00:53:10;6.40;4.50;
69224;PMS1003;56333;51.306;17.056;2023-03-14T00:54:35;9.90;4.90;
69224;PMS1003;56333;51.306;17.056;2023-03-14T00:56:03;7.40;4.80;
69224;PMS1003;56333;51.306;17.056;2023-03-14T00:57:29;7.60;4.80;
69224;PMS1003;56333;51.306;17.056;2023-03-14T00:58:55;8.00;4.70;
69224;PMS1003;56333;51.306;17.056;2023-03-14T01:00:21;8.70;4.90;
69224;PMS1003;56333;51.306;17.056;2023-03-14T01:01:46;10.10;5.30;
69224;PMS1003;56333;51.306;17.056;2023-03-14T01:03:12;8.10;4.70;
69224;PMS1003;56333;51.306;17.056;2023-03-14T01:04:37;8.60;4.90;
69224;PMS1003;56333;51.306;17.056;2023-03-14T01:06:14;7.50;4.90;
69224;PMS1003;56333;51.306;17.056;2023-03-14T01:07:40;7.10;4.80;
69224;PMS1003;56333;51.306;17.056;2023-03-14T01:09:05;7.50;4.70;
69224;PMS1003;56333;51.306;17.056;2023-03-14T01:11:54;9.30;4.80;
69224;PMS1003;56333;51.306;17.056;2023-03-14T01:13:20;8.60;4.50;
69224;PMS1003;56333;51.306;17.056;2023-03-14T01:14:44;7.20;4.50;
69224;PMS1003;56333;51.306;17.056;2023-03-14T01:16:11;7.20;4.50;
69224;PMS1003;56333;51.306;17.056;2023-03-14T01:17:36;7.20;4.30;
69224;PMS1003;56333;51.306;17.056;2023-03-14T01:19:02;8.60;4.40;
69224;PMS1003;56333;51.306;17.056;2023-03-14T01:20:26;6.30;4.50;
69224;PMS1003;56333;51.306;17.056;2023-03-14T01:21:50;7.40;4.30;
69224;PMS1003;56333;51.306;17.056;2023-03-14T01:23:15;7.40;4.80;
69224;PMS1003;56333;51.306;17.056;2023-03-14T01:24:40;8.00;4.20;
69224;PMS1003;56333;51.306;17.056;2023-03-14T01:26:05;7.20;4.30;
69224;PMS1003;56333;51.306;17.056;2023-03-14T01:27:33;8.90;4.60;
69224;PMS1003;56333;51.306;17.056;2023-03-14T01:28:57;7.70;4.60;
69224;PMS1003;56333;51.306;17.056;2023-03-14T01:30:22;7.50;4.30;
69224;PMS1003;56333;51.306;17.056;2023-03-14T01:31:47;6.50;4.20;
69224;PMS1003;56333;51.306;17.056;2023-03-14T01:33:12;6.90;4.50;
69224;PMS1003;56333;51.306;17.056;2023-03-14T01:34:40;7.00;4.30;
69224;PMS1003;56333;51.306;17.056;2023-03-14T01:36:08;8.00;4.80;
69224;PMS1003;56333;51.306;17.056;2023-03-14T01:37:34;8.00;5.00;
69224;PMS1003;56333;51.306;17.056;2023-03-14T01:38:59;7.70;4.40;
69224;PMS1003;56333;51.306;17.056;2023-03-14T01:40:24;9.10;4.80;
69224;PMS1003;56333;51.306;17.056;2023-03-14T01:41:49;8.20;4.80;
69224;PMS1003;56333;51.306;17.056;2023-03-14T01:43:18;8.50;4.90;
69224;PMS1003;56333;51.306;17.056;2023-03-14T01:44:54;8.80;4.70;
69224;PMS1003;56333;51.306;17.056;2023-03-14T01:46:44;7.70;4.50;
69224;PMS1003;56333;51.306;17.056;2023-03-14T01:48:09;7.50;4.40;
69224;PMS1003;56333;51.306;17.056;2023-03-14T01:49:35;6.70;3.90;
69224;PMS1003;56333;51.306;17.056;2023-03-14T01:51:08;8.60;4.50;
69224;PMS1003;56333;51.306;17.056;2023-03-14T01:52:37;6.70;4.50;
69224;PMS1003;56333;51.306;17.056;2023-03-14T01:54:11;7.30;4.70;
69224;PMS1003;56333;51.306;17.056;2023-03-14T01:55:39;7.10;4.90;
69224;PMS1003;56333;51.306;17.056;2023-03-14T01:57:10;10.80;5.10;
69224;PMS1003;56333;51.306;17.056;2023-03-14T01:58:37;8.80;5.00;
69224;PMS1003;56333;51.306;17.056;2023-03-14T02:00:10;11.50;5.40;
69224;PMS1003;56333;51.306;17.056;2023-03-14T02:04:10;8.80;5.30;
69224;PMS1003;56333;51.306;17.056;2023-03-14T02:05:40;8.90;5.20;
69224;PMS1003;56333;51.306;17.056;2023-03-14T02:07:14;9.60;5.40;
69224;PMS1003;56333;51.306;17.056;2023-03-14T02:08:51;8.90;5.80;
69224;PMS1003;56333;51.306;17.056;2023-03-14T02:10:22;10.60;6.30;
69224;PMS1003;56333;51.306;17.056;2023-03-14T02:11:50;10.70;5.80;
69224;PMS1003;56333;51.306;17.056;2023-03-14T02:13:35;8.80;5.30;
69224;PMS1003;56333;51.306;17.056;2023-03-14T02:15:22;8.70;5.20;
69224;PMS1003;56333;51.306;17.056;2023-03-14T02:16:54;9.80;5.20;
69224;PMS1003;56333;51.306;17.056;2023-03-14T02:18:45;9.30;5.20;
69224;PMS1003;56333;51.306;17.056;2023-03-14T02:20:36;10.70;5.70;
69224;PMS1003;56333;51.306;17.056;2023-03-14T02:22:10;8.90;5.60;
69224;PMS1003;56333;51.306;17.056;2023-03-14T02:24:16;9.70;5.80;
69224;PMS1003;56333;51.306;17.056;2023-03-14T02:25:54;9.30;5.30;
69224;PMS1003;56333;51.306;17.056;2023-03-14T02:27:22;10.00;5.50;
69224;PMS1003;56333;51.306;17.056;2023-03-14T02:28:47;8.00;5.40;
69224;PMS1003;56333;51.306;17.056;2023-03-14T02:30:15;9.30;5.20;
69224;PMS1003;56333;51.306;17.056;2023-03-14T02:33:09;8.20;6.00;
69224;PMS1003;56333;51.306;17.056;2023-03-14T02:34:35;10.00;5.60;
69224;PMS1003;56333;51.306;17.056;2023-03-14T02:36:05;12.50;6.10;
69224;PMS1003;56333;51.306;17.056;2023-03-14T02:37:38;10.00;6.00;
69224;PMS1003;56333;51.306;17.056;2023-03-14T02:40:37;8.30;5.10;
69224;PMS1003;56333;51.306;17.056;2023-03-14T02:42:03;11.60;4.90;
69224;PMS1003;56333;51.306;17.056;2023-03-14T02:43:28;7.30;4.70;
69224;PMS1003;56333;51.306;17.056;2023-03-14T02:45:01;8.50;5.00;
69224;PMS1003;56333;51.306;17.056;2023-03-14T02:47:00;7.30;4.70;
69224;PMS1003;56333;51.306;17.056;2023-03-14T02:48:29;9.00;5.20;
69224;PMS1003;56333;51.306;17.056;2023-03-14T02:50:00;10.20;5.50;
69224;PMS1003;56333;51.306;17.056;2023-03-14T02:51:29;9.10;5.40;
69224;PMS1003;56333;51.306;17.056;2023-03-14T02:52:54;9.50;5.80;
69224;PMS1003;56333;51.306;17.056;2023-03-14T02:54:20;9.90;5.70;
69224;PMS1003;56333;51.306;17.056;2023-03-14T02:55:48;9.50;5.70;
69224;PMS1003;56333;51.306;17.056;2023-03-14T02:57:14;9.90;5.90;
69224;PMS1003;56333;51.306;17.056;2023-03-14T02:58:38;10.80;6.00;
69224;PMS1003;56333;51.306;17.056;2023-03-14T03:00:26;11.10;6.50;
69224;PMS1003;56333;51.306;17.056;2023-03-14T03:01:50;11.00;6.30;
69224;PMS1003;56333;51.306;17.056;2023-03-14T03:03:16;10.10;6.20;
69224;PMS1003;56333;51.306;17.056;2023-03-14T03:04:41;9.00;5.60;
69224;PMS1003;56333;51.306;17.056;2023-03-14T03:06:06;9.90;5.80;
69224;PMS1003;56333;51.306;17.056;2023-03-14T03:07:31;10.80;5.10;
69224;PMS1003;56333;51.306;17.056;2023-03-14T03:08:56;7.60;5.30;
69224;PMS1003;56333;51.306;17.056;2023-03-14T03:10:21;8.80;5.30;
69224;PMS1003;56333;51.306;17.056;2023-03-14T03:11:45;10.10;5.50;
69224;PMS1003;56333;51.306;17.056;2023-03-14T03:13:14;7.60;5.00;
69224;PMS1003;56333;51.306;17.056;2023-03-14T03:14:39;11.30;6.10;
69224;PMS1003;56333;51.306;17.056;2023-03-14T03:16:06;8.20;5.10;
69224;PMS1003;56333;51.306;17.056;2023-03-14T03:17:31;7.10;4.70;
69224;PMS1003;56333;51.306;17.056;2023-03-14T03:18:56;8.30;5.10;
69224;PMS1003;56333;51.306;17.056;2023-03-14T03:20:20;9.00;5.30;
69224;PMS1003;56333;51.306;17.056;2023-03-14T03:21:45;8.70;5.60;
69224;PMS1003;56333;51.306;17.056;2023-03-14T03:23:10;13.00;5.80;
69224;PMS1003;56333;51.306;17.056;2023-03-14T03:24:35;8.80;5.20;
69224;PMS1003;56333;51.306;17.056;2023-03-14T03:26:00;10.00;5.30;
69224;PMS1003;56333;51.306;17.056;2023-03-14T03:27:26;8.00;5.00;
69224;PMS1003;56333;51.306;17.056;2023-03-14T03:28:53;8.20;5.00;
69224;PMS1003;56333;51.306;17.056;2023-03-14T03:30:19;9.40;5.60;
69224;PMS1003;56333;51.306;17.056;2023-03-14T03:31:44;11.00;6.10;
69224;PMS1003;56333;51.306;17.056;2023-03-14T03:33:10;7.80;5.20;
69224;PMS1003;56333;51.306;17.056;2023-03-14T03:34:34;9.70;5.90;
69224;PMS1003;56333;51.306;17.056;2023-03-14T03:35:59;11.10;4.80;
69224;PMS1003;56333;51.306;17.056;2023-03-14T03:37:27;7.70;4.80;
69224;PMS1003;56333;51.306;17.056;2023-03-14T03:38:54;8.50;4.90;
69224;PMS1003;56333;51.306;17.056;2023-03-14T03:40:19;7.50;4.80;
69224;PMS1003;56333;51.306;17.056;2023-03-14T03:41:43;6.70;4.70;
69224;PMS1003;56333;51.306;17.056;2023-03-14T03:43:08;9.10;4.80;
69224;PMS1003;56333;51.306;17.056;2023-03-14T03:44:33;7.70;4.50;
69224;PMS1003;56333;51.306;17.056;2023-03-14T03:45:58;8.10;4.80;
69224;PMS1003;56333;51.306;17.056;2023-03-14T03:47:27;6.90;4.20;
69224;PMS1003;56333;51.306;17.056;2023-03-14T03:48:56;6.60;4.30;
69224;PMS1003;56333;51.306;17.056;2023-03-14T03:50:22;9.00;4.50;
69224;PMS1003;56333;51.306;17.056;2023-03-14T03:51:47;7.70;4.30;
69224;PMS1003;56333;51.306;17.056;2023-03-14T03:53:11;8.00;4.40;
69224;PMS1003;56333;51.306;17.056;2023-03-14T03:54:36;9.60;4.60;
69224;PMS1003;56333;51.306;17.056;2023-03-14T03:56:01;7.70;4.10;
69224;PMS1003;56333;51.306;17.056;2023-03-14T03:57:26;6.60;3.80;
69224;PMS1003;56333;51.306;17.056;2023-03-14T03:58:50;8.00;3.80;
69224;PMS1003;56333;51.306;17.056;2023-03-14T04:00:15;11.20;4.50;
69224;PMS1003;56333;51.306;17.056;2023-03-14T04:01:40;6.80;3.80;
69224;PMS1003;56333;51.306;17.056;2023-03-14T04:03:05;9.30;4.30;
69224;PMS1003;56333;51.306;17.056;2023-03-14T04:04:29;10.50;4.20;
69224;PMS1003;56333;51.306;17.056;2023-03-14T04:06:02;7.20;3.80;
69224;PMS1003;56333;51.306;17.056;2023-03-14T04:07:33;7.00;4.00;
69224;PMS1003;56333;51.306;17.056;2023-03-14T04:08:58;7.30;4.20;
69224;PMS1003;56333;51.306;17.056;2023-03-14T04:10:35;8.00;4.10;
69224;PMS1003;56333;51.306;17.056;2023-03-14T04:12:04;7.10;4.00;
69224;PMS1003;56333;51.306;17.056;2023-03-14T04:13:48;8.60;4.40;
69224;PMS1003;56333;51.306;17.056;2023-03-14T04:15:14;6.20;3.70;
69224;PMS1003;56333;51.306;17.056;2023-03-14T04:16:43;8.70;4.20;
69224;PMS1003;56333;51.306;17.056;2023-03-14T04:18:11;7.90;3.80;
69224;PMS1003;56333;51.306;17.056;2023-03-14T04:19:35;7.70;4.10;
69224;PMS1003;56333;51.306;17.056;2023-03-14T04:21:01;6.70;3.80;
69224;PMS1003;56333;51.306;17.056;2023-03-14T04:22:38;6.20;3.50;
69224;PMS1003;56333;51.306;17.056;2023-03-14T04:24:04;7.00;4.10;
69224;PMS1003;56333;51.306;17.056;2023-03-14T04:25:31;8.60;4.00;
69224;PMS1003;56333;51.306;17.056;2023-03-14T04:26:59;7.40;3.80;
69224;PMS1003;56333;51.306;17.056;2023-03-14T04:28:24;6.10;3.80;
69224;PMS1003;56333;51.306;17.056;2023-03-14T04:29:48;7.60;4.40;
69224;PMS1003;56333;51.306;17.056;2023-03-14T04:31:20;8.50;3.80;
69224;PMS1003;56333;51.306;17.056;2023-03-14T04:32:46;6.40;3.70;
69224;PMS1003;56333;51.306;17.056;2023-03-14T04:34:11;6.50;3.60;
69224;PMS1003;56333;51.306;17.056;2023-03-14T04:35:41;6.20;3.80;
69224;PMS1003;56333;51.306;17.056;2023-03-14T04:37:08;7.10;3.80;
69224;PMS1003;56333;51.306;17.056;2023-03-14T04:38:37;5.80;3.50;
69224;PMS1003;56333;51.306;17.056;2023-03-14T04:40:03;5.80;3.70;
69224;PMS1003;56333;51.306;17.056;2023-03-14T04:41:30;7.90;4.10;
69224;PMS1003;56333;51.306;17.056;2023-03-14T04:42:55;6.50;3.80;
69224;PMS1003;56333;51.306;17.056;2023-03-14T04:44:19;7.60;3.80;
69224;PMS1003;56333;51.306;17.056;2023-03-14T04:45:46;7.80;4.10;
69224;PMS1003;56333;51.306;17.056;2023-03-14T04:47:11;7.60;4.00;
69224;PMS1003;56333;51.306;17.056;2023-03-14T04:48:37;5.70;4.00;
69224;PMS1003;56333;51.306;17.056;2023-03-14T04:50:01;5.60;3.70;
69224;PMS1003;56333;51.306;17.056;2023-03-14T04:51:27;7.00;4.20;
69224;PMS1003;56333;51.306;17.056;2023-03-14T04:52:51;5.60;4.00;
69224;PMS1003;56333;51.306;17.056;2023-03-14T04:54:16;6.80;4.10;
69224;PMS1003;56333;51.306;17.056;2023-03-14T04:55:41;7.20;4.20;
69224;PMS1003;56333;51.306;17.056;2023-03-14T04:57:06;6.50;3.80;
69224;PMS1003;56333;51.306;17.056;2023-03-14T04:58:33;5.60;3.70;
69224;PMS1003;56333;51.306;17.056;2023-03-14T04:59:58;7.50;4.00;
69224;PMS1003;56333;51.306;17.056;2023-03-14T05:01:53;7.70;3.90;
69224;PMS1003;56333;51.306;17.056;2023-03-14T05:03:26;5.70;3.50;
69224;PMS1003;56333;51.306;17.056;2023-03-14T05:05:05;6.60;3.60;
69224;PMS1003;56333;51.306;17.056;2023-03-14T05:07:20;6.60;3.40;
69224;PMS1003;56333;51.306;17.056;2023-03-14T05:09:34;5.20;3.40;
69224;PMS1003;56333;51.306;17.056;2023-03-14T05:11:17;5.80;3.60;
69224;PMS1003;56333;51.306;17.056;2023-03-14T05:12:59;7.00;3.70;
69224;PMS1003;56333;51.306;17.056;2023-03-14T05:14:39;6.30;3.90;
69224;PMS1003;56333;51.306;17.056;2023-03-14T05:16:22;7.90;4.00;
69224;PMS1003;56333;51.306;17.056;2023-03-14T05:17:53;7.00;4.10;
69224;PMS1003;56333;51.306;17.056;2023-03-14T05:19:27;6.50;3.60;
69224;PMS1003;56333;51.306;17.056;2023-03-14T05:21:41;6.20;3.90;
69224;PMS1003;56333;51.306;17.056;2023-03-14T05:23:33;6.10;4.10;
69224;PMS1003;56333;51.306;17.056;2023-03-14T05:25:17;7.60;4.30;
69224;PMS1003;56333;51.306;17.056;2023-03-14T05:26:44;7.90;4.30;
69224;PMS1003;56333;51.306;17.056;2023-03-14T05:28:59;6.40;4.00;
69224;PMS1003;56333;51.306;17.056;2023-03-14T05:31:09;7.60;4.00;
69224;PMS1003;56333;51.306;17.056;2023-03-14T05:33:21;7.20;4.00;
69224;PMS1003;56333;51.306;17.056;2023-03-14T05:35:12;6.60;4.30;
69224;PMS1003;56333;51.306;17.056;2023-03-14T05:37:30;7.90;4.30;
69224;PMS1003;56333;51.306;17.056;2023-03-14T05:39:54;6.40;4.40;
69224;PMS1003;56333;51.306;17.056;2023-03-14T05:41:40;6.30;4.50;
69224;PMS1003;56333;51.306;17.056;2023-03-14T05:43:25;7.50;4.60;
69224;PMS1003;56333;51.306;17.056;2023-03-14T05:45:09;8.80;5.00;
69224;PMS1003;56333;51.306;17.056;2023-03-14T05:47:23;9.20;5.10;
69224;PMS1003;56333;51.306;17.056;2023-03-14T05:49:12;6.60;4.10;
69224;PMS1003;56333;51.306;17.056;2023-03-14T05:51:05;7.80;3.90;
69224;PMS1003;56333;51.306;17.056;2023-03-14T05:53:23;8.80;4.30;
69224;PMS1003;56333;51.306;17.056;2023-03-14T05:55:10;8.30;4.30;
69224;PMS1003;56333;51.306;17.056;2023-03-14T05:57:02;10.00;4.20;
69224;PMS1003;56333;51.306;17.056;2023-03-14T05:59:18;6.90;4.20;
69224;PMS1003;56333;51.306;17.056;2023-03-14T06:00:53;8.50;4.60;
69224;PMS1003;56333;51.306;17.056;2023-03-14T06:02:30;7.20;4.40;
69224;PMS1003;56333;51.306;17.056;2023-03-14T06:03:59;8.10;4.70;
69224;PMS1003;56333;51.306;17.056;2023-03-14T06:05:24;9.40;5.10;
69224;PMS1003;56333;51.306;17.056;2023-03-14T06:06:52;8.60;5.40;
69224;PMS1003;56333;51.306;17.056;2023-03-14T06:08:18;8.90;5.30;
69224;PMS1003;56333;51.306;17.056;2023-03-14T06:09:42;9.50;5.00;
69224;PMS1003;56333;51.306;17.056;2023-03-14T06:11:08;7.60;5.00;
69224;PMS1003;56333;51.306;17.056;2023-03-14T06:12:32;8.70;4.70;
69224;PMS1003;56333;51.306;17.056;2023-03-14T06:13:57;12.90;5.10;
69224;PMS1003;56333;51.306;17.056;2023-03-14T06:15:22;9.20;5.50;
69224;PMS1003;56333;51.306;17.056;2023-03-14T06:16:48;8.30;5.00;
69224;PMS1003;56333;51.306;17.056;2023-03-14T06:18:14;8.90;5.00;
69224;PMS1003;56333;51.306;17.056;2023-03-14T06:19:39;8.10;5.00;
69224;PMS1003;56333;51.306;17.056;2023-03-14T06:21:07;7.40;4.70;
69224;PMS1003;56333;51.306;17.056;2023-03-14T06:22:32;8.30;4.80;
69224;PMS1003;56333;51.306;17.056;2023-03-14T06:24:03;10.10;5.10;
69224;PMS1003;56333;51.306;17.056;2023-03-14T06:25:37;8.10;4.90;
69224;PMS1003;56333;51.306;17.056;2023-03-14T06:27:04;9.30;5.90;
69224;PMS1003;56333;51.306;17.056;2023-03-14T06:28:28;10.00;6.10;
69224;PMS1003;56333;51.306;17.056;2023-03-14T06:29:56;9.80;5.90;
69224;PMS1003;56333;51.306;17.056;2023-03-14T06:31:21;9.50;5.50;
69224;PMS1003;56333;51.306;17.056;2023-03-14T06:32:55;8.70;5.30;
69224;PMS1003;56333;51.306;17.056;2023-03-14T06:34:20;8.80;5.00;
69224;PMS1003;56333;51.306;17.056;2023-03-14T06:35:44;8.20;4.70;
69224;PMS1003;56333;51.306;17.056;2023-03-14T06:37:09;7.90;4.80;
69224;PMS1003;56333;51.306;17.056;2023-03-14T06:38:34;9.30;4.70;
69224;PMS1003;56333;51.306;17.056;2023-03-14T06:40:02;8.00;5.00;
69224;PMS1003;56333;51.306;17.056;2023-03-14T06:41:48;9.30;5.50;
69224;PMS1003;56333;51.306;17.056;2023-03-14T06:43:13;9.70;5.30;
69224;PMS1003;56333;51.306;17.056;2023-03-14T06:44:38;10.10;5.20;
69224;PMS1003;56333;51.306;17.056;2023-03-14T06:46:03;10.20;5.70;
69224;PMS1003;56333;51.306;17.056;2023-03-14T06:47:28;10.70;5.30;
69224;PMS1003;56333;51.306;17.056;2023-03-14T06:48:54;8.60;5.20;
69224;PMS1003;56333;51.306;17.056;2023-03-14T06:50:18;9.20;5.70;
69224;PMS1003;56333;51.306;17.056;2023-03-14T06:51:45;8.30;5.20;
69224;PMS1003;56333;51.306;17.056;2023-03-14T06:53:11;8.40;4.80;
69224;PMS1003;56333;51.306;17.056;2023-03-14T06:54:37;9.70;5.60;
69224;PMS1003;56333;51.306;17.056;2023-03-14T06:56:02;8.20;5.20;
69224;PMS1003;56333;51.306;17.056;2023-03-14T06:57:32;7.00;5.00;
69224;PMS1003;56333;51.306;17.056;2023-03-14T06:58:59;9.20;5.30;
69224;PMS1003;56333;51.306;17.056;2023-03-14T07:00:26;10.40;5.80;
69224;PMS1003;56333;51.306;17.056;2023-03-14T07:01:52;9.00;5.50;
69224;PMS1003;56333;51.306;17.056;2023-03-14T07:03:17;10.40;5.80;
69224;PMS1003;56333;51.306;17.056;2023-03-14T07:04:44;10.40;6.40;
69224;PMS1003;56333;51.306;17.056;2023-03-14T07:06:09;8.50;6.00;
69224;PMS1003;56333;51.306;17.056;2023-03-14T07:07:34;9.70;5.10;
69224;PMS1003;56333;51.306;17.056;2023-03-14T07:08:58;9.30;5.20;
69224;PMS1003;56333;51.306;17.056;2023-03-14T07:10:23;11.00;5.00;
69224;PMS1003;56333;51.306;17.056;2023-03-14T07:11:48;10.30;4.90;
69224;PMS1003;56333;51.306;17.056;2023-03-14T07:13:13;9.80;5.70;
69224;PMS1003;56333;51.306;17.056;2023-03-14T07:15:28;9.70;6.00;
69224;PMS1003;56333;51.306;17.056;2023-03-14T07:16:56;10.70;6.30;
69224;PMS1003;56333;51.306;17.056;2023-03-14T07:18:20;9.80;6.70;
69224;PMS1003;56333;51.306;17.056;2023-03-14T07:19:45;11.00;6.70;
69224;PMS1003;56333;51.306;17.056;2023-03-14T07:21:10;11.00;6.80;
69224;PMS1003;56333;51.306;17.056;2023-03-14T07:22:36;10.60;6.70;
69224;PMS1003;56333;51.306;17.056;2023-03-14T07:24:01;10.70;6.90;
69224;PMS1003;56333;51.306;17.056;2023-03-14T07:25:27;10.70;6.50;
69224;PMS1003;56333;51.306;17.056;2023-03-14T07:26:53;11.50;6.60;
69224;PMS1003;56333;51.306;17.056;2023-03-14T07:28:17;10.20;6.50;
69224;PMS1003;56333;51.306;17.056;2023-03-14T07:29:44;10.10;6.50;
69224;PMS1003;56333;51.306;17.056;2023-03-14T07:31:10;12.10;6.50;
69224;PMS1003;56333;51.306;17.056;2023-03-14T07:32:35;12.90;6.20;
69224;PMS1003;56333;51.306;17.056;2023-03-14T07:33:59;11.60;6.90;
69224;PMS1003;56333;51.306;17.056;2023-03-14T07:35:27;12.40;6.10;
69224;PMS1003;56333;51.306;17.056;2023-03-14T07:36:52;9.60;5.80;
69224;PMS1003;56333;51.306;17.056;2023-03-14T07:38:16;10.40;6.20;
69224;PMS1003;56333;51.306;17.056;2023-03-14T07:39:56;11.00;6.00;
69224;PMS1003;56333;51.306;17.056;2023-03-14T07:41:23;9.90;6.00;
69224;PMS1003;56333;51.306;17.056;2023-03-14T07:43:07;9.80;6.60;
69224;PMS1003;56333;51.306;17.056;2023-03-14T07:44:43;13.30;7.40;
69224;PMS1003;56333;51.306;17.056;2023-03-14T07:46:08;12.90;7.40;
69224;PMS1003;56333;51.306;17.056;2023-03-14T07:47:32;12.30;7.10;
69224;PMS1003;56333;51.306;17.056;2023-03-14T07:48:57;11.60;6.90;
69224;PMS1003;56333;51.306;17.056;2023-03-14T07:50:21;12.70;7.20;
69224;PMS1003;56333;51.306;17.056;2023-03-14T07:51:48;11.70;7.10;
69224;PMS1003;56333;51.306;17.056;2023-03-14T07:53:12;10.10;6.20;
69224;PMS1003;56333;51.306;17.056;2023-03-14T07:54:37;11.30;7.00;
69224;PMS1003;56333;51.306;17.056;2023-03-14T07:56:02;10.70;6.60;
69224;PMS1003;56333;51.306;17.056;2023-03-14T07:57:27;11.10;6.60;
69224;PMS1003;56333;51.306;17.056;2023-03-14T07:58:52;11.10;6.50;
69224;PMS1003;56333;51.306;17.056;2023-03-14T08:00:18;10.80;6.30;
69224;PMS1003;56333;51.306;17.056;2023-03-14T08:01:44;11.00;6.50;
69224;PMS1003;56333;51.306;17.056;2023-03-14T08:03:08;10.80;6.50;
69224;PMS1003;56333;51.306;17.056;2023-03-14T08:04:34;10.50;6.50;
69224;PMS1003;56333;51.306;17.056;2023-03-14T08:06:00;12.80;6.50;
69224;PMS1003;56333;51.306;17.056;2023-03-14T08:07:26;9.90;6.00;
69224;PMS1003;56333;51.306;17.056;2023-03-14T08:08:51;11.50;6.40;
69224;PMS1003;56333;51.306;17.056;2023-03-14T08:10:16;9.10;5.60;
69224;PMS1003;56333;51.306;17.056;2023-03-14T08:13:13;10.20;6.20;
69224;PMS1003;56333;51.306;17.056;2023-03-14T08:14:37;9.80;6.00;
69224;PMS1003;56333;51.306;17.056;2023-03-14T08:16:02;10.60;5.70;
69224;PMS1003;56333;51.306;17.056;2023-03-14T08:17:27;10.90;5.70;
69224;PMS1003;56333;51.306;17.056;2023-03-14T08:18:52;10.70;6.40;
69224;PMS1003;56333;51.306;17.056;2023-03-14T08:20:18;12.40;6.80;
69224;PMS1003;56333;51.306;17.056;2023-03-14T08:21:46;10.20;6.20;
69224;PMS1003;56333;51.306;17.056;2023-03-14T08:23:10;10.30;6.60;
69224;PMS1003;56333;51.306;17.056;2023-03-14T08:24:35;9.90;6.20;
69224;PMS1003;56333;51.306;17.056;2023-03-14T08:26:00;10.20;6.00;
69224;PMS1003;56333;51.306;17.056;2023-03-14T08:27:26;9.90;6.20;
69224;PMS1003;56333;51.306;17.056;2023-03-14T08:28:59;10.50;6.20;
69224;PMS1003;56333;51.306;17.056;2023-03-14T08:30:24;9.20;6.20;
69224;PMS1003;56333;51.306;17.056;2023-03-14T08:31:50;11.00;6.50;
69224;PMS1003;56333;51.306;17.056;2023-03-14T08:33:23;10.00;6.00;
69224;PMS1003;56333;51.306;17.056;2023-03-14T08:34:52;10.10;6.10;
69224;PMS1003;56333;51.306;17.056;2023-03-14T08:36:27;10.70;5.80;
69224;PMS1003;56333;51.306;17.056;2023-03-14T08:38:01;8.10;5.00;
69224;PMS1003;56333;51.306;17.056;2023-03-14T08:39:25;8.20;5.00;
69224;PMS1003;56333;51.306;17.056;2023-03-14T08:40:56;10.00;5.10;
69224;PMS1003;56333;51.306;17.056;2023-03-14T08:42:21;10.70;5.80;
69224;PMS1003;56333;51.306;17.056;2023-03-14T08:43:45;9.50;5.50;
69224;PMS1003;56333;51.306;17.056;2023-03-14T08:45:14;11.10;5.50;
69224;PMS1003;56333;51.306;17.056;2023-03-14T08:46:39;9.90;5.50;
69224;PMS1003;56333;51.306;17.056;2023-03-14T08:48:05;9.20;5.20;
69224;PMS1003;56333;51.306;17.056;2023-03-14T08:49:30;10.40;4.90;
69224;PMS1003;56333;51.306;17.056;2023-03-14T08:50:54;8.30;4.70;
69224;PMS1003;56333;51.306;17.056;2023-03-14T08:52:19;7.30;4.60;
69224;PMS1003;56333;51.306;17.056;2023-03-14T08:53:44;9.00;4.60;
69224;PMS1003;56333;51.306;17.056;2023-03-14T08:55:10;8.20;4.60;
69224;PMS1003;56333;51.306;17.056;2023-03-14T08:56:34;9.00;4.90;
69224;PMS1003;56333;51.306;17.056;2023-03-14T08:58:01;8.20;4.90;
69224;PMS1003;56333;51.306;17.056;2023-03-14T08:59:25;7.00;4.60;
69224;PMS1003;56333;51.306;17.056;2023-03-14T09:00:49;7.10;4.50;
69224;PMS1003;56333;51.306;17.056;2023-03-14T09:02:13;7.10;4.70;
69224;PMS1003;56333;51.306;17.056;2023-03-14T09:03:38;8.50;5.10;
69224;PMS1003;56333;51.306;17.056;2023-03-14T09:05:04;7.40;5.00;
69224;PMS1003;56333;51.306;17.056;2023-03-14T09:06:29;9.10;4.90;
69224;PMS1003;56333;51.306;17.056;2023-03-14T09:07:54;7.60;4.90;
69224;PMS1003;56333;51.306;17.056;2023-03-14T09:09:19;9.20;5.10;
69224;PMS1003;56333;51.306;17.056;2023-03-14T09:10:45;12.00;5.20;
69224;PMS1003;56333;51.306;17.056;2023-03-14T09:12:10;8.30;4.90;
69224;PMS1003;56333;51.306;17.056;2023-03-14T09:13:35;9.60;4.90;
69224;PMS1003;56333;51.306;17.056;2023-03-14T09:15:00;7.60;4.40;